createdAt,value
2023-05-09T00:02:08.532Z,1.30
2023-05-09T00:04:36.690Z,1.50
2023-05-09T00:07:04.634Z,1.20
2023-05-09T00:09:32.558Z,1.57
2023-05-09T00:12:02.613Z,1.47
2023-05-09T00:14:30.554Z,1.40
2023-05-09T00:16:59.309Z,1.20
2023-05-09T00:19:27.216Z,1.80
2023-05-09T00:21:55.628Z,1.60
2023-05-09T00:24:23.631Z,1.53
2023-05-09T00:26:51.528Z,1.33
2023-05-09T00:29:20.774Z,1.23
2023-05-09T00:31:48.759Z,1.47
2023-05-09T00:34:16.749Z,1.70
2023-05-09T00:36:44.626Z,1.57
2023-05-09T00:39:12.668Z,1.40
2023-05-09T00:41:40.634Z,1.57
2023-05-09T00:44:08.529Z,1.60
2023-05-09T00:46:37.853Z,1.60
2023-05-09T00:49:06.311Z,1.47
2023-05-09T00:51:34.488Z,1.60
2023-05-09T00:54:02.409Z,1.73
2023-05-09T00:56:30.454Z,1.40
2023-05-09T00:58:58.414Z,1.60
2023-05-09T01:01:26.353Z,1.63
2023-05-09T01:03:56.514Z,1.47
2023-05-09T01:06:28.729Z,1.70
2023-05-09T01:09:00.768Z,1.40
2023-05-09T01:11:33.709Z,1.57
2023-05-09T01:14:09.637Z,1.40
2023-05-09T01:16:41.805Z,1.50
2023-05-09T01:19:29.008Z,1.67
2023-05-09T01:21:58.701Z,1.80
2023-05-09T01:24:35.671Z,1.70
2023-05-09T01:27:30.263Z,1.73
2023-05-09T01:29:59.588Z,1.80
2023-05-09T01:32:29.863Z,1.33
2023-05-09T01:35:01.348Z,1.67
2023-05-09T01:37:32.915Z,1.67
2023-05-09T01:40:07.143Z,1.50
2023-05-09T01:42:40.712Z,1.93
2023-05-09T01:45:11.554Z,1.70
2023-05-09T01:47:41.297Z,1.67
2023-05-09T01:50:11.455Z,1.50
2023-05-09T01:52:40.576Z,1.70
2023-05-09T01:55:09.207Z,1.50
2023-05-09T01:57:37.782Z,1.57
2023-05-09T02:00:07.955Z,1.60
2023-05-09T02:02:37.725Z,1.63
2023-05-09T02:05:06.636Z,1.70
2023-05-09T02:07:34.840Z,1.30
2023-05-09T02:10:04.894Z,1.57
2023-05-09T02:12:32.865Z,1.40
2023-05-09T02:15:00.772Z,1.50
2023-05-09T02:17:30.868Z,1.60
2023-05-09T02:20:00.242Z,1.50
2023-05-09T02:22:28.527Z,1.70
2023-05-09T02:24:56.546Z,1.90
2023-05-09T02:27:24.851Z,1.80
2023-05-09T02:29:56.340Z,1.80
2023-05-09T02:32:25.786Z,1.90
2023-05-09T02:34:54.557Z,1.60
2023-05-09T02:37:24.338Z,1.70
2023-05-09T02:39:52.282Z,1.50
2023-05-09T02:42:22.697Z,1.70
2023-05-09T02:44:50.624Z,1.70
2023-05-09T02:47:18.594Z,1.63
2023-05-09T02:49:46.516Z,1.80
2023-05-09T02:52:14.473Z,1.63
2023-05-09T02:54:43.781Z,1.60
2023-05-09T02:57:11.852Z,2.10
2023-05-09T02:59:39.740Z,1.97
2023-05-09T03:02:07.652Z,2.03
2023-05-09T03:04:35.955Z,1.53
2023-05-09T03:07:03.873Z,1.90
2023-05-09T03:09:31.776Z,1.63
2023-05-09T03:12:01.099Z,1.57
2023-05-09T03:14:28.997Z,1.47
2023-05-09T03:16:56.904Z,1.90
2023-05-09T03:19:25.224Z,1.70
2023-05-09T03:21:53.232Z,1.80
2023-05-09T03:24:21.140Z,2.67
2023-05-09T03:26:49.015Z,1.70
2023-05-09T03:29:18.300Z,1.87
2023-05-09T03:31:46.253Z,1.70
2023-05-09T03:34:15.408Z,1.70
2023-05-09T03:36:43.707Z,1.83
2023-05-09T03:39:11.728Z,1.93
2023-05-09T03:41:39.672Z,2.00
2023-05-09T03:44:07.942Z,1.90
2023-05-09T03:46:37.318Z,1.60
2023-05-09T03:49:05.426Z,1.63
2023-05-09T03:51:33.652Z,2.10
2023-05-09T03:54:01.545Z,2.10
2023-05-09T03:56:29.451Z,1.90
2023-05-09T03:58:57.350Z,2.27
2023-05-09T04:01:25.278Z,1.60
2023-05-09T04:03:54.658Z,1.90
2023-05-09T04:06:22.640Z,2.07
2023-05-09T04:08:50.704Z,2.07
2023-05-09T04:11:18.618Z,1.80
2023-05-09T04:13:46.519Z,2.43
2023-05-09T04:16:14.544Z,1.80
2023-05-09T04:18:42.864Z,2.30
2023-05-09T04:21:12.177Z,2.07
2023-05-09T04:23:40.102Z,1.70
2023-05-09T04:26:09.691Z,2.10
2023-05-09T04:28:37.594Z,2.00
2023-05-09T04:31:06.601Z,2.40
2023-05-09T04:33:34.718Z,1.90
2023-05-09T04:36:03.030Z,1.90
2023-05-09T04:38:32.345Z,1.90
2023-05-09T04:41:00.232Z,2.30
2023-05-09T04:43:28.401Z,1.83
2023-05-09T04:45:56.368Z,1.90
2023-05-09T04:48:24.283Z,2.00
2023-05-09T04:50:52.212Z,2.10
2023-05-09T04:53:20.460Z,1.90
2023-05-09T04:55:49.773Z,2.20
2023-05-09T04:58:17.709Z,1.90
2023-05-09T05:00:45.629Z,1.90
2023-05-09T05:03:13.618Z,2.30
2023-05-09T05:05:41.724Z,1.90
2023-05-09T05:08:09.730Z,2.40
2023-05-09T05:10:37.668Z,2.57
2023-05-09T05:13:07.019Z,2.03
2023-05-09T05:15:34.963Z,2.40
2023-05-09T05:18:02.890Z,2.47
2023-05-09T05:20:30.975Z,2.07
2023-05-09T05:22:58.861Z,2.30
2023-05-09T05:25:26.933Z,2.63
2023-05-09T05:27:54.824Z,1.83
2023-05-09T05:30:24.198Z,2.30
2023-05-09T05:32:52.145Z,2.27
2023-05-09T05:35:22.528Z,2.47
2023-05-09T05:37:50.524Z,2.30
2023-05-09T05:40:18.508Z,2.13
2023-05-09T05:42:46.709Z,1.90
2023-05-09T05:45:14.986Z,2.60
2023-05-09T05:47:44.561Z,2.03
2023-05-09T05:50:13.083Z,2.60
2023-05-09T05:52:41.502Z,2.57
2023-05-09T05:55:10.045Z,2.73
2023-05-09T05:57:39.158Z,2.23
2023-05-09T06:00:10.809Z,2.10
2023-05-09T06:02:38.796Z,2.57
2023-05-09T06:05:09.411Z,2.33
2023-05-09T06:07:37.328Z,2.40
2023-05-09T06:10:05.872Z,2.30
2023-05-09T06:12:33.804Z,2.10
2023-05-09T06:15:01.749Z,2.50
2023-05-09T06:17:29.812Z,2.47
2023-05-09T06:19:57.759Z,2.50
2023-05-09T06:22:27.084Z,2.50
2023-05-09T06:24:54.997Z,2.80
2023-05-09T06:27:23.011Z,2.23
2023-05-09T06:29:52.713Z,2.77
2023-05-09T06:32:21.183Z,2.67
2023-05-09T06:34:49.120Z,1.97
2023-05-09T06:37:17.073Z,2.20
2023-05-09T06:39:46.375Z,2.50
2023-05-09T06:42:14.307Z,2.73
2023-05-09T06:44:43.785Z,2.50
2023-05-09T06:47:11.873Z,2.00
2023-05-09T06:49:39.820Z,2.40
2023-05-09T06:52:07.708Z,2.20
2023-05-09T06:54:35.612Z,2.50
2023-05-09T06:57:05.048Z,2.23
2023-05-09T06:59:33.068Z,2.50
2023-05-09T07:02:01.208Z,2.40
2023-05-09T07:04:29.211Z,2.73
2023-05-09T07:06:57.160Z,2.30
2023-05-09T07:09:28.002Z,2.43
2023-05-09T07:11:56.082Z,2.60
2023-05-09T07:14:25.350Z,2.13
2023-05-09T07:16:53.314Z,3.10
2023-05-09T07:19:21.262Z,3.03
2023-05-09T07:21:49.246Z,2.00
2023-05-09T07:24:17.198Z,2.47
2023-05-09T07:26:45.076Z,2.77
2023-05-09T07:29:12.968Z,2.53
2023-05-09T07:31:42.260Z,2.43
2023-05-09T07:34:10.200Z,2.53
2023-05-09T07:39:11.176Z,2.67
2023-05-09T07:41:39.104Z,2.40
2023-05-09T07:44:07.100Z,2.27
2023-05-09T07:46:35.056Z,1.93
2023-05-09T07:49:04.419Z,2.20
2023-05-09T07:51:32.354Z,2.50
2023-05-09T07:54:00.273Z,2.43
2023-05-09T07:56:28.196Z,2.57
2023-05-09T07:58:56.094Z,2.70
2023-05-09T08:01:24.079Z,3.77
2023-05-09T08:03:52.086Z,2.70
2023-05-09T08:06:21.520Z,2.80
2023-05-09T08:08:49.566Z,2.83
2023-05-09T08:11:17.504Z,2.93
2023-05-09T08:13:46.084Z,2.47
2023-05-09T08:16:14.091Z,2.90
2023-05-09T08:18:42.031Z,3.20
2023-05-09T08:21:09.980Z,2.30
2023-05-09T08:23:40.645Z,2.47
2023-05-09T08:26:08.621Z,2.20
2023-05-09T08:28:36.553Z,2.80
2023-05-09T08:31:04.592Z,2.73
2023-05-09T08:33:32.724Z,3.10
2023-05-09T08:36:00.639Z,3.00
2023-05-09T08:38:28.697Z,2.50
2023-05-09T08:41:02.999Z,2.77
2023-05-09T08:43:31.056Z,2.80
2023-05-09T08:46:00.488Z,2.43
2023-05-09T08:48:29.850Z,3.00
2023-05-09T08:50:58.052Z,2.50
2023-05-09T08:53:26.808Z,2.80
2023-05-09T08:55:54.878Z,2.60
2023-05-09T08:58:24.388Z,2.40
2023-05-09T09:00:52.491Z,3.00
2023-05-09T09:03:20.580Z,2.80
2023-05-09T09:05:49.284Z,2.43
2023-05-09T09:08:17.697Z,2.80
2023-05-09T09:10:47.514Z,3.03
2023-05-09T09:13:16.775Z,3.43
2023-05-09T09:15:47.388Z,3.10
2023-05-09T09:18:24.873Z,2.53
2023-05-09T09:20:57.960Z,3.10
2023-05-09T09:23:27.302Z,2.90
2023-05-09T09:26:00.332Z,3.90
2023-05-09T09:28:28.700Z,3.27
2023-05-09T09:30:58.148Z,2.80
2023-05-09T09:33:27.158Z,2.90
2023-05-09T09:35:56.448Z,3.47
2023-05-09T09:38:25.249Z,3.50
2023-05-09T09:40:56.747Z,3.20
2023-05-09T09:43:31.839Z,3.10
2023-05-09T09:46:04.020Z,3.13
2023-05-09T09:48:33.987Z,2.87
2023-05-09T09:51:05.409Z,3.00
2023-05-09T09:53:40.275Z,3.03
2023-05-09T09:56:08.586Z,2.90
2023-05-09T09:58:36.830Z,2.63
2023-05-09T10:01:10.355Z,2.30
2023-05-09T10:03:39.575Z,2.33
2023-05-09T10:06:11.342Z,2.80
2023-05-09T10:08:39.339Z,2.60
2023-05-09T10:11:07.459Z,2.17
2023-05-09T10:13:36.542Z,2.57
2023-05-09T10:16:05.596Z,2.37
2023-05-09T10:18:35.839Z,2.30
2023-05-09T10:21:05.307Z,2.23
2023-05-09T10:23:36.230Z,2.40
2023-05-09T10:26:08.391Z,2.20
2023-05-09T10:28:38.025Z,2.23
2023-05-09T10:31:09.206Z,2.13
2023-05-09T10:33:44.635Z,2.10
2023-05-09T10:36:13.414Z,2.53
2023-05-09T10:38:41.771Z,2.10
2023-05-09T10:41:10.348Z,2.27
2023-05-09T10:43:38.322Z,2.10
2023-05-09T10:46:06.987Z,2.10
2023-05-09T10:48:35.119Z,2.05
2023-05-09T10:51:05.226Z,2.20
2023-05-09T10:53:43.589Z,2.30
2023-05-09T10:56:23.823Z,2.20
2023-05-09T10:58:51.912Z,2.28
2023-05-09T11:01:30.560Z,2.08
2023-05-09T11:03:59.977Z,2.22
2023-05-09T11:06:48.959Z,2.60
2023-05-09T11:09:28.563Z,2.00
2023-05-09T11:11:58.114Z,2.10
2023-05-09T11:14:33.217Z,2.10
2023-05-09T11:17:04.637Z,2.20
2023-05-09T11:19:58.164Z,2.10
2023-05-09T11:22:28.852Z,2.13
2023-05-09T11:25:10.220Z,2.40
2023-05-09T11:27:42.468Z,2.28
2023-05-09T11:30:15.512Z,2.22
2023-05-09T11:32:46.674Z,2.10
2023-05-09T11:35:17.111Z,1.90
2023-05-09T11:37:51.131Z,2.10
2023-05-09T11:40:19.915Z,2.15
2023-05-09T11:42:50.051Z,1.77
2023-05-09T11:45:18.801Z,2.00
2023-05-09T11:47:47.277Z,1.95
2023-05-09T11:50:16.536Z,2.20
2023-05-09T11:52:45.274Z,2.10
2023-05-09T11:55:15.567Z,2.17
2023-05-09T11:57:45.696Z,2.63
2023-05-09T12:00:15.529Z,2.50
2023-05-09T12:02:45.452Z,2.75
2023-05-09T12:05:15.100Z,1.95
2023-05-09T12:07:43.724Z,2.30
2023-05-09T12:10:15.771Z,2.53
2023-05-09T12:12:45.153Z,2.20
2023-05-09T12:15:14.255Z,2.20
2023-05-09T12:17:43.510Z,2.30
2023-05-09T12:20:12.584Z,2.13
2023-05-09T12:22:43.549Z,2.38
2023-05-09T12:25:12.473Z,2.40
2023-05-09T12:27:42.661Z,2.17
2023-05-09T12:30:14.051Z,1.85
2023-05-09T12:32:42.900Z,2.08
2023-05-09T12:35:11.491Z,2.17
2023-05-09T12:37:39.807Z,1.85
2023-05-09T12:40:12.606Z,2.00
2023-05-09T12:42:46.078Z,1.80
2023-05-09T12:45:14.812Z,2.22
2023-05-09T12:47:43.178Z,1.80
2023-05-09T12:50:12.691Z,2.60
2023-05-09T12:52:54.669Z,2.38
2023-05-09T12:55:30.549Z,2.10
2023-05-09T12:58:01.521Z,1.98
2023-05-09T13:00:29.784Z,1.92
2023-05-09T13:02:57.922Z,2.00
2023-05-09T13:05:26.281Z,2.33
2023-05-09T13:07:58.128Z,2.03
2023-05-09T13:10:28.426Z,1.83
2023-05-09T13:12:56.530Z,2.00
2023-05-09T13:15:26.853Z,2.10
2023-05-09T13:17:55.511Z,2.00
2023-05-09T13:20:23.670Z,1.90
2023-05-09T13:22:51.572Z,2.15
2023-05-09T13:25:20.393Z,2.30
2023-05-09T13:27:48.305Z,2.10
2023-05-09T13:30:16.730Z,2.17
2023-05-09T13:32:47.556Z,2.22
2023-05-09T13:35:16.299Z,1.98
2023-05-09T13:37:44.321Z,2.38
2023-05-09T13:40:13.046Z,2.55
2023-05-09T13:42:41.248Z,2.30
2023-05-09T13:45:10.075Z,2.00
2023-05-09T13:47:38.686Z,1.83
2023-05-09T13:50:09.534Z,2.20
2023-05-09T13:52:37.460Z,2.20
2023-05-09T13:55:05.992Z,2.15
2023-05-09T13:57:33.925Z,2.35
2023-05-09T14:00:01.896Z,2.10
2023-05-09T14:02:29.834Z,2.10
2023-05-09T14:04:58.913Z,2.30
2023-05-09T14:07:28.329Z,2.33
2023-05-09T14:10:10.462Z,2.25
2023-05-09T14:12:40.715Z,1.88
2023-05-09T14:15:09.685Z,2.38
2023-05-09T14:17:37.905Z,1.95
2023-05-09T14:20:06.716Z,2.40
2023-05-09T14:22:36.219Z,1.90
2023-05-09T14:25:04.161Z,1.95
2023-05-09T14:27:32.070Z,2.20
2023-05-09T14:30:00.007Z,1.80
2023-05-09T14:32:27.893Z,2.30
2023-05-09T14:34:55.838Z,2.17
2023-05-09T14:37:23.823Z,2.42
2023-05-09T14:39:53.137Z,2.33
2023-05-09T14:42:21.526Z,2.17
2023-05-09T14:44:50.027Z,2.15
2023-05-09T14:47:17.994Z,1.92
2023-05-09T14:49:45.942Z,1.90
2023-05-09T14:52:13.829Z,1.90
2023-05-09T14:54:41.940Z,2.30
2023-05-09T14:57:11.696Z,2.05
2023-05-09T14:59:39.633Z,2.15
2023-05-09T15:02:08.138Z,2.17
2023-05-09T15:04:36.087Z,1.98
2023-05-09T15:07:06.090Z,1.95
2023-05-09T15:09:34.063Z,2.00
2023-05-09T15:12:02.034Z,1.80
2023-05-09T15:14:31.391Z,1.98
2023-05-09T15:17:02.835Z,2.00
2023-05-09T15:19:32.586Z,2.00
2023-05-09T15:22:00.961Z,2.05
2023-05-09T15:24:28.902Z,1.80
2023-05-09T15:26:56.910Z,2.10
2023-05-09T15:29:24.883Z,2.10
2023-05-09T15:31:55.514Z,2.00
2023-05-09T15:34:23.500Z,2.17
2023-05-09T15:36:51.428Z,2.45
2023-05-09T15:39:19.328Z,1.92
2023-05-09T15:41:47.222Z,2.03
2023-05-09T15:44:16.245Z,2.30
2023-05-09T15:46:44.303Z,2.08
2023-05-09T15:49:13.607Z,2.10
2023-05-09T15:51:42.270Z,1.98
2023-05-09T15:54:10.277Z,2.30
2023-05-09T15:56:38.190Z,2.17
2023-05-09T15:59:06.376Z,2.42
2023-05-09T16:01:35.405Z,2.15
2023-05-09T16:04:03.550Z,2.03
2023-05-09T16:06:33.690Z,2.05
2023-05-09T16:09:02.348Z,1.90
2023-05-09T16:11:30.251Z,2.30
2023-05-09T16:13:58.249Z,2.00
2023-05-09T16:16:26.296Z,2.10
2023-05-09T16:18:54.320Z,2.25
2023-05-09T16:21:22.881Z,2.22
2023-05-09T16:23:52.169Z,2.05
2023-05-09T16:26:20.127Z,2.35
2023-05-09T16:28:48.022Z,2.50
2023-05-09T16:31:15.925Z,2.03
2023-05-09T16:33:44.006Z,2.10
2023-05-09T16:36:11.888Z,2.10
2023-05-09T16:38:39.816Z,2.20
2023-05-09T16:41:09.092Z,1.90
2023-05-09T16:43:37.212Z,2.00
2023-05-09T16:46:05.869Z,1.90
2023-05-09T16:48:33.848Z,2.63
2023-05-09T16:51:01.746Z,1.80
2023-05-09T16:53:29.682Z,2.42
2023-05-09T16:55:57.741Z,2.22
2023-05-09T16:58:27.028Z,1.85
2023-05-09T17:00:55.385Z,2.30
2023-05-09T17:03:23.324Z,2.20
2023-05-09T17:05:51.280Z,2.05
2023-05-09T17:08:19.252Z,2.38
2023-05-09T17:10:47.128Z,2.40
2023-05-09T17:13:15.083Z,2.40
2023-05-09T17:15:45.139Z,2.20
2023-05-09T17:18:17.066Z,2.13
2023-05-09T17:20:47.372Z,2.20
2023-05-09T17:23:15.312Z,2.10
2023-05-09T17:25:43.531Z,2.10
2023-05-09T17:28:11.658Z,2.13
2023-05-09T17:30:40.510Z,2.33
2023-05-09T17:33:09.833Z,2.25
2023-05-09T17:35:38.100Z,2.47
2023-05-09T17:38:06.452Z,2.30
2023-05-09T17:40:34.354Z,2.33
2023-05-09T17:43:02.355Z,2.20
2023-05-09T17:45:30.245Z,2.25
2023-05-09T17:47:58.642Z,1.98
2023-05-09T17:50:27.990Z,2.25
2023-05-09T17:52:57.031Z,2.30
2023-05-09T17:55:25.059Z,2.17
2023-05-09T17:57:52.932Z,2.10
2023-05-09T18:00:21.117Z,2.30
2023-05-09T18:02:51.119Z,1.92
2023-05-09T18:05:19.296Z,2.15
2023-05-09T18:07:49.570Z,2.03
2023-05-09T18:10:17.680Z,2.22
2023-05-09T18:12:45.929Z,2.17
2023-05-09T18:15:14.056Z,1.80
2023-05-09T18:17:42.019Z,2.47
2023-05-09T18:20:10.650Z,2.20
2023-05-09T18:22:38.568Z,1.67
2023-05-09T18:25:08.734Z,2.17
2023-05-09T18:27:36.639Z,2.10
2023-05-09T18:30:04.988Z,1.90
2023-05-09T18:32:33.197Z,2.00
2023-05-09T18:35:01.172Z,1.80
2023-05-09T18:37:29.079Z,1.80
2023-05-09T18:39:57.185Z,2.00
2023-05-09T18:42:26.978Z,2.10
2023-05-09T18:44:56.925Z,2.00
2023-05-09T18:47:25.057Z,2.00
2023-05-09T18:49:52.946Z,1.83
2023-05-09T18:52:22.604Z,1.87
2023-05-09T18:54:50.555Z,1.93
2023-05-09T18:57:19.884Z,1.70
2023-05-09T18:59:51.818Z,1.80
2023-05-09T19:02:20.595Z,1.90
2023-05-09T19:04:50.421Z,1.83
2023-05-09T19:07:18.399Z,1.60
2023-05-09T19:09:46.299Z,1.97
2023-05-09T19:12:16.402Z,2.10
2023-05-09T19:14:44.563Z,1.60
2023-05-09T19:17:13.819Z,1.80
2023-05-09T19:19:42.088Z,1.90
2023-05-09T19:22:10.024Z,1.93
2023-05-09T19:24:37.918Z,1.90
2023-05-09T19:27:07.636Z,1.60
2023-05-09T19:29:35.967Z,1.83
2023-05-09T19:32:04.993Z,1.80
2023-05-09T19:34:34.431Z,1.90
2023-05-09T19:37:02.385Z,1.57
2023-05-09T19:39:30.590Z,1.60
2023-05-09T19:42:00.456Z,1.70
2023-05-09T19:44:28.758Z,1.57
2023-05-09T19:46:58.534Z,1.50
2023-05-09T19:49:26.882Z,1.73
2023-05-09T19:51:56.185Z,1.87
2023-05-09T19:54:26.486Z,1.63
2023-05-09T19:56:54.504Z,1.60
2023-05-09T19:59:22.605Z,1.60
2023-05-09T20:01:50.529Z,1.80
2023-05-09T20:04:21.715Z,1.70
2023-05-09T20:06:49.734Z,1.53
2023-05-09T20:09:21.013Z,1.83
2023-05-09T20:11:49.231Z,1.63
2023-05-09T20:14:17.423Z,1.70
2023-05-09T20:16:45.528Z,1.57
2023-05-09T20:19:15.081Z,1.43
2023-05-09T20:21:43.005Z,1.60
2023-05-09T20:24:11.836Z,1.47
2023-05-09T20:26:41.137Z,1.43
2023-05-09T20:29:09.056Z,1.57
2023-05-09T20:31:36.957Z,1.70
2023-05-09T20:34:04.946Z,1.47
2023-05-09T20:36:32.867Z,1.47
2023-05-09T20:39:00.842Z,1.60
2023-05-09T20:41:28.794Z,1.60
2023-05-09T20:44:03.532Z,1.30
2023-05-09T20:46:31.668Z,1.20
2023-05-09T20:48:59.576Z,1.37
2023-05-09T20:51:27.576Z,1.40
2023-05-09T20:53:55.472Z,1.30
2023-05-09T20:56:23.437Z,1.50
2023-05-09T20:58:51.368Z,1.70
2023-05-09T21:01:20.668Z,1.37
2023-05-09T21:03:48.840Z,1.27
2023-05-09T21:06:16.753Z,1.60
2023-05-09T21:08:44.697Z,1.20
2023-05-09T21:11:12.579Z,1.20
2023-05-09T21:13:40.542Z,1.37
2023-05-09T21:16:08.612Z,1.70
2023-05-09T21:18:38.125Z,1.57
2023-05-09T21:21:08.059Z,1.73
2023-05-09T21:23:35.967Z,1.30
2023-05-09T21:26:04.048Z,1.30
2023-05-09T21:28:32.764Z,1.60
2023-05-09T21:31:01.820Z,1.50
2023-05-09T21:33:30.003Z,1.70
2023-05-09T21:35:59.420Z,1.67
2023-05-09T21:38:27.297Z,1.40
2023-05-09T21:40:55.373Z,1.53
2023-05-09T21:43:23.292Z,1.60
2023-05-09T21:45:51.200Z,1.20
2023-05-09T21:48:19.128Z,1.40
2023-05-09T21:50:47.131Z,1.67
2023-05-09T21:53:16.384Z,1.40
2023-05-09T21:55:44.312Z,1.53
2023-05-09T21:58:12.176Z,1.40
2023-05-09T22:00:40.216Z,1.30
2023-05-09T22:03:08.556Z,1.40
2023-05-09T22:05:36.575Z,1.13
2023-05-09T22:08:04.632Z,1.57
2023-05-09T22:10:34.151Z,1.47
2023-05-09T22:13:02.271Z,1.50
2023-05-09T22:15:30.375Z,1.50
2023-05-09T22:17:58.350Z,1.67
2023-05-09T22:20:26.310Z,1.60
2023-05-09T22:22:54.241Z,1.47
2023-05-09T22:25:22.149Z,1.70
2023-05-09T22:27:51.446Z,1.50
2023-05-09T22:30:19.385Z,1.43
2023-05-09T22:32:47.298Z,1.43
2023-05-09T22:35:15.235Z,1.70
2023-05-09T22:37:43.151Z,1.40
2023-05-09T22:40:11.736Z,1.40
2023-05-09T22:42:39.634Z,1.23
2023-05-09T22:45:10.138Z,1.80
2023-05-09T22:47:38.264Z,1.50
2023-05-09T22:50:07.258Z,1.70
2023-05-09T22:52:35.185Z,1.47
2023-05-09T22:55:03.367Z,1.47
2023-05-09T22:57:31.823Z,1.87
2023-05-09T22:59:59.739Z,1.80
2023-05-09T23:02:29.060Z,1.70
2023-05-09T23:04:57.441Z,1.83
2023-05-09T23:07:25.437Z,2.10
2023-05-09T23:09:53.336Z,2.00
2023-05-09T23:12:21.248Z,1.70
2023-05-09T23:14:49.227Z,1.70
2023-05-09T23:17:17.244Z,1.60
2023-05-09T23:19:47.036Z,1.70
2023-05-09T23:22:14.937Z,1.90
2023-05-09T23:24:42.913Z,1.70
2023-05-09T23:27:10.800Z,1.70
2023-05-09T23:29:38.705Z,1.80
2023-05-09T23:32:06.645Z,1.60
2023-05-09T23:34:36.232Z,1.70
2023-05-09T23:37:05.687Z,1.50
2023-05-09T23:39:33.688Z,1.50
2023-05-09T23:42:01.602Z,1.80
2023-05-09T23:44:30.141Z,1.53
2023-05-09T23:46:58.271Z,1.87
2023-05-09T23:49:26.259Z,1.70
2023-05-09T23:51:54.156Z,1.60
2023-05-09T23:54:24.468Z,1.77
2023-05-09T23:56:52.411Z,1.57
2023-05-09T23:59:20.292Z,1.73
